Marseillais 6 — FQSJ — position and weather

sailwx.info

Track history (hours):
 
Tides and Currents Weather Stations Pressure Air Temp Water Temp Dewpoint Dewpoint Depression Visibility Wind Speed Wind Dir Waves Ship Positions

Marseillais 6

Last reported at 2017-May-26 09:00 UTC. Time now 2017-May-26 09:22 UTC.
Position N 43°25' E 004°54'.

Length 35 m; draft 5 m.

Type: Tug. MMSI: 227016900.

Date/timePositionNaut miles runAvg speedWind from/ knotsBaromVisibWave heightAir tempDewpointWater temp
2017-May-26 09:00N 43°25' E 004°54'0 0.1
2017-May-26 08:30N 43°24' E 004°54'0 0.4
2017-May-26 07:25N 43°24' E 004°54'1 1.4
2017-May-26 07:00N 43°25' E 004°53'2 2.6
2017-May-26 06:12N 43°24' E 004°56'211.7
2017-May-26 06:00N 43°24' E 004°59'0 0.7
2017-May-26 05:30N 43°24' E 004°59'0 0.0
2017-May-26 05:00N 43°24' E 004°59'2 4.8
2017-May-26 04:30N 43°24' E 004°56'2 3.8
2017-May-26 04:00N 43°24' E 004°53'0 0.1
2017-May-26 03:28N 43°24' E 004°53'1 1.1
2017-May-26 02:41N 43°24' E 004°54'1 4.9
2017-May-26 02:25N 43°24' E 004°56'1 3.3
2017-May-26 02:00N 43°23' E 004°58'1 2.0
2017-May-26 01:30N 43°24' E 004°59'0 0.0
2017-May-26 01:00N 43°24' E 004°59'0 0.0
2017-May-26 00:30N 43°24' E 004°59'0 0.0
2017-May-26 00:00N 43°24' E 004°59'0 0.0
2017-May-25 23:30N 43°24' E 004°59'0 0.0
2017-May-25 23:00N 43°24' E 004°59'0 0.0
2017-May-25 22:30N 43°24' E 004°59'0 0.0
2017-May-25 22:00N 43°24' E 004°59'0 0.0
2017-May-25 21:30N 43°24' E 004°59'0 0.0
2017-May-25 21:00N 43°24' E 004°59'0 0.0
2017-May-25 20:30N 43°24' E 004°59'0 0.0
2017-May-25 20:00N 43°24' E 004°59'0 0.0
2017-May-25 19:30N 43°24' E 004°59'0 0.0
2017-May-25 19:00N 43°24' E 004°59'0 0.0
2017-May-25 18:30N 43°24' E 004°59'0 0.0
2017-May-25 18:00N 43°24' E 004°59'0 0.0
2017-May-25 17:30N 43°24' E 004°59'0 0.0
2017-May-25 17:00N 43°24' E 004°59'0 0.0
2017-May-25 16:30N 43°24' E 004°59'0 0.0
2017-May-25 16:00N 43°24' E 004°59'0 0.0
2017-May-25 15:30N 43°24' E 004°59'0 0.8
2017-May-25 15:00N 43°24' E 004°60'0 0.8
2017-May-25 14:30N 43°24' E 004°59'0 0.0
2017-May-25 13:30N 43°24' E 004°59'0 0.0
2017-May-25 13:00N 43°24' E 004°59'0 0.0
2017-May-25 12:30N 43°24' E 004°59'0 1.0
2017-May-25 12:00N 43°24' E 004°60'0 0.9
2017-May-25 11:30N 43°24' E 004°59'0 0.0
2017-May-25 11:00N 43°24' E 004°59'0 0.0
2017-May-25 10:30N 43°24' E 004°59'0 0.0
2017-May-25 10:00N 43°24' E 004°59'0 0.0
2017-May-25 09:30N 43°24' E 004°59'0 0.0
2017-May-25 09:00N 43°24' E 004°59'0 0.2
2017-May-25 08:30N 43°24' E 004°59'611.0
2017-May-25 08:00N 43°24' E 004°52'0 0.8
2017-May-25 07:29N 43°25' E 004°51'510.3
2017-May-25 07:00N 43°23' E 004°58'1 1.9
2017-May-25 06:30N 43°24' E 004°59'0 0.0
2017-May-25 06:00N 43°24' E 004°59'0 0.0
2017-May-25 05:30N 43°24' E 004°59'0 0.0
2017-May-25 05:00N 43°24' E 004°59'0 0.0
2017-May-25 04:30N 43°24' E 004°59'0 0.0
2017-May-25 04:00N 43°24' E 004°59'0 0.0
2017-May-25 03:30N 43°24' E 004°59'0 0.0
2017-May-25 03:00N 43°24' E 004°59'0 0.0
2017-May-25 02:30N 43°24' E 004°59'0 0.0
2017-May-25 02:00N 43°24' E 004°59'0 0.0
2017-May-25 01:30N 43°24' E 004°59'0 0.0
2017-May-25 01:00N 43°24' E 004°59'0 0.0
2017-May-25 00:30N 43°24' E 004°59'0 0.0
2017-May-25 00:00N 43°24' E 004°59'0 0.0
2017-May-24 23:30N 43°24' E 004°59'0 0.0
2017-May-24 23:00N 43°24' E 004°59'0 0.0
2017-May-24 22:30N 43°24' E 004°59'0 0.0
2017-May-24 22:00N 43°24' E 004°59'0 0.0
2017-May-24 21:30N 43°24' E 004°59'0 0.0
2017-May-24 21:00N 43°24' E 004°59'0 0.0
2017-May-24 20:30N 43°24' E 004°59'0 0.0
2017-May-24 20:00N 43°24' E 004°59'0 0.0
2017-May-24 19:30N 43°24' E 004°59'0 0.0
2017-May-24 19:00N 43°24' E 004°59'1 1.7
2017-May-24 18:30N 43°23' E 004°58'4 6.5
2017-May-24 17:50N 43°26' E 004°53'0 0.2
2017-May-24 17:27N 43°25' E 004°53'410.2
2017-May-24 17:00N 43°24' E 004°58'1 1.4
2017-May-24 16:30N 43°24' E 004°59'0 0.2
2017-May-24 16:01N 43°24' E 004°59'0 0.8
2017-May-24 15:30N 43°24' E 004°60'0 0.9
2017-May-24 15:00N 43°24' E 004°59'0 0.0
2017-May-24 14:30N 43°24' E 004°59'0 0.0
2017-May-24 13:30N 43°24' E 004°59'0 0.0
2017-May-24 13:00N 43°24' E 004°59'0 0.0
2017-May-24 12:30N 43°24' E 004°59'0 0.0
2017-May-24 12:00N 43°24' E 004°59'0 0.0
2017-May-24 11:30N 43°24' E 004°59'0 0.0
2017-May-24 11:00N 43°24' E 004°59'0 0.0
2017-May-24 10:30N 43°24' E 004°59'0 0.0
2017-May-24 10:00N 43°24' E 004°59'0 0.0
2017-May-24 09:30N 43°24' E 004°59'0 0.0
2017-May-24 09:00N 43°24' E 004°59'0 0.0
2017-May-24 08:30N 43°24' E 004°59'0 0.0
2017-May-24 08:00N 43°24' E 004°59'0 0.0
2017-May-24 07:30N 43°24' E 004°59'0 0.0
2017-May-24 07:00N 43°24' E 004°59'0 0.0
2017-May-24 06:30N 43°24' E 004°59'0 0.0
2017-May-24 06:00N 43°24' E 004°59'0 0.0
2017-May-24 05:30N 43°24' E 004°59'0 0.0
2017-May-24 05:00N 43°24' E 004°59'0 0.0
2017-May-24 04:30N 43°24' E 004°59'0 0.0
2017-May-24 04:00N 43°24' E 004°59'0 0.0
2017-May-24 03:30N 43°24' E 004°59'0 0.0
2017-May-24 03:00N 43°24' E 004°59'0 0.0
2017-May-24 02:30N 43°24' E 004°59'0 0.0
2017-May-24 02:00N 43°24' E 004°59'0 0.0
2017-May-24 01:30N 43°24' E 004°59'0 0.0
2017-May-24 01:00N 43°24' E 004°59'0 0.0
2017-May-24 00:30N 43°24' E 004°59'0 0.0
2017-May-24 00:00N 43°24' E 004°59'0 0.0
2017-May-23 23:30N 43°24' E 004°59'0 0.0
2017-May-23 23:00N 43°24' E 004°59'0 0.0
2017-May-23 22:30N 43°24' E 004°59'0 0.0
2017-May-23 22:00N 43°24' E 004°59'0 0.0
2017-May-23 21:30N 43°24' E 004°59'0 0.0
2017-May-23 21:00N 43°24' E 004°59'0 0.0
2017-May-23 20:30N 43°24' E 004°59'0 0.0
2017-May-23 20:00N 43°24' E 004°59'0 0.0
2017-May-23 19:30N 43°24' E 004°59'0 0.0
2017-May-23 19:00N 43°24' E 004°59'0 0.0
2017-May-23 18:30N 43°24' E 004°59'1 1.7
2017-May-23 18:00N 43°24' E 004°58'611.5
2017-May-23 17:31N 43°25' E 004°50'0 0.5
2017-May-23 17:00N 43°25' E 004°50'0 0.0
2017-May-23 16:30N 43°25' E 004°50'0 0.0
2017-May-23 16:00N 43°25' E 004°50'0 0.0
2017-May-23 15:30N 43°25' E 004°50'2 3.2
2017-May-23 15:00N 43°24' E 004°52'6 5.7
2017-May-23 14:00N 43°24' E 004°60'1 1.9
2017-May-23 13:30N 43°23' E 004°59'1 1.4
2017-May-23 13:00N 43°24' E 004°59'0 0.0
2017-May-23 12:30N 43°24' E 004°59'0 0.0
2017-May-23 12:00N 43°24' E 004°59'0 0.0
2017-May-23 11:30N 43°24' E 004°59'0 0.0
2017-May-23 11:00N 43°24' E 004°59'0 0.0
2017-May-23 10:30N 43°24' E 004°59'0 0.0
2017-May-23 10:00N 43°24' E 004°59'0 0.0
2017-May-23 09:30N 43°24' E 004°59'0 0.0
2017-May-23 09:00N 43°24' E 004°59'0 0.0
2017-May-23 08:31N 43°24' E 004°59'4 1.8
2017-May-23 06:16N 43°26' E 004°54'0 0.0
2017-May-23 05:59N 43°26' E 004°54'0 0.0
2017-May-23 05:30N 43°26' E 004°54'0 0.0
2017-May-23 01:52N 43°26' E 004°54'3 7.8
2017-May-23 01:30N 43°24' E 004°51'0 0.5
2017-May-23 01:00N 43°24' E 004°51'2 4.6
2017-May-23 00:30N 43°25' E 004°53'1 0.2
2017-May-22 21:34N 43°26' E 004°54'0 0.0
2017-May-22 21:06N 43°26' E 004°54'0 0.0
2017-May-22 20:58N 43°26' E 004°54'0 0.0
2017-May-22 20:28N 43°26' E 004°54'0 0.0
2017-May-22 19:54N 43°26' E 004°54'0 0.0
2017-May-22 19:30N 43°26' E 004°54'0 0.0
2017-May-22 18:32N 43°26' E 004°54'0 0.0
2017-May-22 18:08N 43°26' E 004°54'0 0.0
2017-May-22 17:56N 43°26' E 004°54'0 0.0
2017-May-22 17:30N 43°26' E 004°54'0 0.0
2017-May-22 17:00N 43°26' E 004°54'0 0.0
2017-May-22 16:28N 43°26' E 004°54'0 0.0
2017-May-22 16:00N 43°26' E 004°54'0 0.0
2017-May-22 15:29N 43°26' E 004°54'0 0.0
2017-May-22 14:59N 43°26' E 004°54'0 0.0
2017-May-22 14:00N 43°26' E 004°54'0 0.0
2017-May-22 13:30N 43°26' E 004°54'0 0.0
2017-May-22 13:00N 43°26' E 004°54'0 0.0
2017-May-22 12:30N 43°26' E 004°54'0 0.0
2017-May-22 11:57N 43°26' E 004°54'0 0.0
2017-May-22 11:30N 43°26' E 004°54'0 0.0
2017-May-22 11:00N 43°26' E 004°54'0 0.0
2017-May-22 10:30N 43°26' E 004°54'0 0.0
2017-May-22 10:00N 43°26' E 004°54'0 0.0
2017-May-22 09:30N 43°26' E 004°54'0 0.0
2017-May-22 08:59N 43°26' E 004°54'0 0.0
2017-May-22 08:23N 43°26' E 004°54'0 0.0
2017-May-22 07:38N 43°26' E 004°54'0 0.0
2017-May-22 07:27N 43°26' E 004°54'0 0.0
2017-May-22 06:57N 43°26' E 004°54'0 0.0
2017-May-22 06:19N 43°26' E 004°54'0 0.0
2017-May-22 05:56N 43°26' E 004°54'0 0.0
2017-May-22 05:18N 43°26' E 004°54'0 0.0
2017-May-22 04:32N 43°26' E 004°54'0 0.0
2017-May-22 04:22N 43°26' E 004°54'0 0.0
2017-May-22 03:47N 43°26' E 004°54'0 0.0
2017-May-22 03:23N 43°26' E 004°54'0 0.0
2017-May-22 02:46N 43°26' E 004°54'0 0.0
2017-May-22 02:29N 43°26' E 004°54'0 0.0
2017-May-22 01:57N 43°26' E 004°54'0 0.0
2017-May-22 01:27N 43°26' E 004°54'0 0.0
2017-May-22 00:57N 43°26' E 004°54'0 0.0
2017-May-22 00:27N 43°26' E 004°54'0 0.0
2017-May-21 23:59N 43°26' E 004°54'1 2.1
2017-May-21 23:27N 43°25' E 004°53'1 1.6
2017-May-21 22:50N 43°24' E 004°54'2 4.6
2017-May-21 22:28N 43°24' E 004°56'2 5.1
2017-May-21 22:00N 43°24' E 004°53'0 0.8
2017-May-21 21:21N 43°25' E 004°53'0 0.7
2017-May-21 21:00N 43°25' E 004°53'0 0.8
2017-May-21 20:28N 43°25' E 004°53'1 1.2
2017-May-21 19:53N 43°24' E 004°53'0 0.0
2017-May-21 19:23N 43°24' E 004°53'1 3.4
2017-May-21 18:59N 43°26' E 004°54'0 0.0
2017-May-21 18:30N 43°26' E 004°54'0 0.0
2017-May-21 17:59N 43°26' E 004°54'0 0.0
2017-May-21 17:28N 43°26' E 004°54'0 0.0
2017-May-21 16:58N 43°26' E 004°54'0 0.0
2017-May-21 16:30N 43°26' E 004°54'0 0.0
2017-May-21 16:00N 43°26' E 004°54'0 0.0
2017-May-21 15:30N 43°26' E 004°54'0 0.0
2017-May-21 15:00N 43°26' E 004°54'0 0.0
2017-May-21 13:57N 43°26' E 004°54'0 0.0
2017-May-21 13:30N 43°26' E 004°54'0 0.0
2017-May-21 13:00N 43°26' E 004°54'0 0.0
2017-May-21 12:30N 43°26' E 004°54'0 0.0
2017-May-21 12:00N 43°26' E 004°54'0 0.0
2017-May-21 11:30N 43°26' E 004°54'0 0.0
2017-May-21 11:00N 43°26' E 004°54'0 0.0
2017-May-21 10:29N 43°26' E 004°54'0 0.0
2017-May-21 09:59N 43°26' E 004°54'0 0.0
2017-May-21 09:29N 43°26' E 004°54'0 0.0
2017-May-21 08:58N 43°26' E 004°54'0 0.0
2017-May-21 08:09N 43°26' E 004°54'1 6.4
2017-May-21 08:00N 43°25' E 004°53'1 1.2
2017-May-21 07:30N 43°25' E 004°54'0 0.1
2017-May-21 06:49N 43°25' E 004°54'0 1.1
2017-May-21 06:30N 43°24' E 004°54'2 3.4
2017-May-21 05:57N 43°24' E 004°56'3 2.3
2017-May-21 04:48N 43°26' E 004°54'0 0.0
2017-May-21 03:26N 43°26' E 004°54'0 0.0
2017-May-21 00:18N 43°26' E 004°54'0 0.3
2017-May-20 23:51N 43°26' E 004°54'2 6.3
2017-May-20 23:31N 43°25' E 004°51'0 0.4
2017-May-20 23:01N 43°25' E 004°51'2 2.7
2017-May-20 22:05N 43°26' E 004°54'0 0.0
2017-May-20 21:47N 43°26' E 004°54'0 0.0
2017-May-20 21:22N 43°26' E 004°54'0 0.0
2017-May-20 20:34N 43°26' E 004°54'0 0.0
2017-May-20 20:09N 43°26' E 004°54'0 0.0
2017-May-20 19:42N 43°26' E 004°54'0 0.0
2017-May-20 19:30N 43°26' E 004°54'0 0.0
2017-May-20 18:51N 43°26' E 004°54'0 0.0
2017-May-20 17:25N 43°26' E 004°54'0 0.0
2017-May-20 16:56N 43°26' E 004°54'0 0.0
2017-May-20 16:19N 43°26' E 004°54'2 4.0
2017-May-20 15:50N 43°24' E 004°52'1 3.2
2017-May-20 15:31N 43°25' E 004°51'2 2.7
2017-May-20 14:55N 43°24' E 004°53'1 3.3
2017-May-20 14:30N 43°26' E 004°54'0 0.0
2017-May-20 13:30N 43°26' E 004°54'0 0.0
2017-May-20 13:00N 43°26' E 004°54'0 0.0
2017-May-20 12:26N 43°26' E 004°54'0 0.0
2017-May-20 11:57N 43°26' E 004°54'0 0.0
2017-May-20 11:30N 43°26' E 004°54'0 0.0
2017-May-20 11:00N 43°26' E 004°54'0 0.0
2017-May-20 10:29N 43°26' E 004°54'0 0.0
2017-May-20 09:52N 43°26' E 004°54'0 0.0
2017-May-20 09:23N 43°26' E 004°54'0 0.0
2017-May-20 08:58N 43°26' E 004°54'0 0.0
2017-May-20 08:27N 43°26' E 004°54'0 0.0
2017-May-20 08:00N 43°26' E 004°54'0 0.0
2017-May-20 07:30N 43°26' E 004°54'0 0.0
2017-May-20 06:56N 43°26' E 004°54'0 0.0
2017-May-20 05:09N 43°26' E 004°54'0 0.0
2017-May-20 04:57N 43°26' E 004°54'0 0.0
2017-May-20 03:37N 43°26' E 004°54'0 0.0
2017-May-20 03:28N 43°26' E 004°54'0 0.0
2017-May-20 02:49N 43°26' E 004°54'0 0.0
2017-May-20 02:19N 43°26' E 004°54'0 0.0
2017-May-20 02:00N 43°26' E 004°54'0 0.0
2017-May-20 01:10N 43°26' E 004°54'0 0.0
2017-May-20 00:45N 43°26' E 004°54'0 0.0
2017-May-20 00:22N 43°26' E 004°54'0 0.0
2017-May-20 00:00N 43°26' E 004°54'0 0.0
2017-May-19 23:28N 43°26' E 004°54'1 2.3
2017-May-19 23:00N 43°25' E 004°53'0 0.2
2017-May-19 22:15N 43°26' E 004°52'1 1.8
2017-May-19 21:49N 43°25' E 004°53'2 2.3
2017-May-19 21:06N 43°24' E 004°55'1 6.9
2017-May-19 21:00N 43°24' E 004°54'2 3.1
2017-May-19 20:30N 43°26' E 004°54'0 0.0
2017-May-19 20:00N 43°26' E 004°54'0 0.0
2017-May-19 19:30N 43°26' E 004°54'1 1.7
2017-May-19 18:52N 43°25' E 004°53'0 0.1
2017-May-19 18:28N 43°25' E 004°53'0 0.0
2017-May-19 18:00N 43°25' E 004°53'1 2.0
2017-May-19 17:29N 43°26' E 004°54'0 0.0
2017-May-19 16:59N 43°26' E 004°54'0 0.0
2017-May-19 16:29N 43°26' E 004°54'0 0.0
2017-May-19 16:00N 43°26' E 004°54'0 0.0
2017-May-19 15:30N 43°26' E 004°54'0 0.0
2017-May-19 14:59N 43°26' E 004°54'0 0.0
2017-May-19 14:00N 43°26' E 004°54'0 0.0
2017-May-19 13:29N 43°26' E 004°54'0 0.5
2017-May-19 13:00N 43°26' E 004°54'1 2.0
2017-May-19 12:23N 43°24' E 004°53'1 3.1
2017-May-19 11:59N 43°24' E 004°55'1 1.5
2017-May-19 11:30N 43°24' E 004°54'2 3.1
2017-May-19 10:59N 43°26' E 004°54'0 0.0
2017-May-19 10:26N 43°26' E 004°54'0 0.0
2017-May-19 09:57N 43°26' E 004°54'0 0.0
2017-May-19 09:18N 43°26' E 004°54'2 5.1
2017-May-19 08:59N 43°24' E 004°54'4 9.0
2017-May-19 08:30N 43°24' E 004°60'0 0.0
2017-May-19 08:00N 43°24' E 004°60'0 0.5
2017-May-19 07:31N 43°24' E 004°59'1 1.9
2017-May-19 07:00N 43°23' E 004°58'4 4.9
2017-May-19 06:13N 43°26' E 004°54'0 0.4
2017-May-19 05:56N 43°26' E 004°54'3 5.9
2017-May-19 05:28N 43°24' E 004°51'1 2.1
2017-May-19 05:00N 43°24' E 004°52'2 4.6
2017-May-19 04:30N 43°26' E 004°54'0 0.1
2017-May-19 03:43N 43°26' E 004°54'0 0.0
2017-May-19 03:25N 43°26' E 004°54'0 0.0
2017-May-19 03:00N 43°26' E 004°54'0 0.0
2017-May-19 01:21N 43°26' E 004°54'0 0.0
2017-May-18 20:07N 43°26' E 004°54'0 0.0
2017-May-18 19:08N 43°26' E 004°54'0 0.0
2017-May-18 18:59N 43°26' E 004°54'0 0.0
2017-May-18 18:30N 43°26' E 004°54'2 3.5
2017-May-18 17:52N 43°24' E 004°56'3 9.2
2017-May-18 17:30N 43°24' E 005°00'3 4.2
2017-May-18 16:44N 43°25' E 005°05'0 0.0
2017-May-18 16:24N 43°25' E 005°05'0 0.0
2017-May-18 16:00N 43°25' E 005°05'2 3.4
2017-May-18 15:30N 43°26' E 005°07'2 3.6
2017-May-18 15:00N 43°27' E 005°08'4 8.9
2017-May-18 14:30N 43°24' E 005°03'8 8.2
2017-May-18 13:30N 43°24' E 004°52'1 1.8
2017-May-18 13:00N 43°24' E 004°51'2 4.5
2017-May-18 12:30N 43°25' E 004°53'1 1.2
2017-May-18 12:00N 43°26' E 004°54'0 0.0
2017-May-18 11:30N 43°26' E 004°54'0 0.0
2017-May-18 11:00N 43°26' E 004°54'0 0.0
2017-May-18 10:27N 43°26' E 004°54'0 0.0
2017-May-18 10:00N 43°26' E 004°54'0 0.0
2017-May-18 09:28N 43°26' E 004°54'0 0.0
2017-May-18 08:59N 43°26' E 004°54'0 0.0
2017-May-18 08:30N 43°26' E 004°54'0 0.0
2017-May-18 07:57N 43°26' E 004°54'0 0.0
2017-May-18 07:30N 43°26' E 004°54'0 0.0
2017-May-18 06:47N 43°26' E 004°54'2 5.5
2017-May-18 06:30N 43°24' E 004°54'1 1.2
2017-May-18 06:00N 43°24' E 004°55'0 0.0
2017-May-18 05:30N 43°24' E 004°55'1 2.8
2017-May-18 05:00N 43°24' E 004°57'3 5.7
2017-May-18 04:30N 43°26' E 004°54'0 0.0
2017-May-18 02:34N 43°26' E 004°54'0 0.0
2017-May-18 02:28N 43°26' E 004°54'0 0.0
2017-May-18 02:00N 43°26' E 004°54'0 0.0
2017-May-18 01:04N 43°26' E 004°54'0 0.0
2017-May-18 00:58N 43°26' E 004°54'0 0.0
2017-May-18 00:26N 43°26' E 004°54'0 0.0
2017-May-17 23:56N 43°26' E 004°54'0 0.0
2017-May-17 23:27N 43°26' E 004°54'0 0.0
2017-May-17 22:49N 43°26' E 004°54'0 0.0
2017-May-17 22:30N 43°26' E 004°54'1 2.2
2017-May-17 22:00N 43°26' E 004°52'0 0.1
2017-May-17 21:30N 43°26' E 004°52'1 1.9
2017-May-17 20:59N 43°25' E 004°53'0 1.0
2017-May-17 20:30N 43°25' E 004°53'1 1.4
2017-May-17 19:58N 43°26' E 004°54'0 0.0
2017-May-17 19:30N 43°26' E 004°54'0 0.0
2017-May-17 19:00N 43°26' E 004°54'0 0.0
2017-May-17 18:19N 43°26' E 004°54'2 5.5
2017-May-17 18:01N 43°24' E 004°54'1 1.2
2017-May-17 17:31N 43°24' E 004°53'1 2.0
2017-May-17 16:55N 43°26' E 004°54'0 0.1
2017-May-17 15:44N 43°26' E 004°54'0 0.0
2017-May-17 15:28N 43°26' E 004°54'0 0.0
2017-May-17 15:00N 43°26' E 004°54'0 0.0
2017-May-17 14:01N 43°26' E 004°54'1 1.0
2017-May-17 13:06N 43°25' E 004°53'1 1.5
2017-May-17 12:28N 43°24' E 004°54'0 0.4
2017-May-17 12:00N 43°24' E 004°53'2 1.8
2017-May-17 10:59N 43°25' E 004°51'2 4.7
2017-May-17 10:30N 43°26' E 004°54'0 0.2
2017-May-17 10:00N 43°26' E 004°54'0 0.0
2017-May-17 09:30N 43°26' E 004°54'0 0.0
2017-May-17 08:59N 43°26' E 004°54'0 0.0
2017-May-17 07:38N 43°26' E 004°54'0 0.0
2017-May-17 06:45N 43°26' E 004°54'0 0.0
2017-May-17 06:15N 43°26' E 004°54'0 0.0
2017-May-17 05:55N 43°26' E 004°54'0 0.0
2017-May-17 05:25N 43°26' E 004°54'0 0.0
2017-May-17 04:57N 43°26' E 004°54'0 0.0
2017-May-17 04:30N 43°26' E 004°54'0 0.0
2017-May-17 04:00N 43°26' E 004°54'0 0.0
2017-May-17 03:30N 43°26' E 004°54'0 0.0
2017-May-17 03:00N 43°26' E 004°54'1 1.3
2017-May-17 02:29N 43°25' E 004°53'2 2.1
2017-May-17 01:35N 43°25' E 004°51'0 0.9
2017-May-17 01:31N 43°25' E 004°51'2 2.8
2017-May-17 00:55N 43°25' E 004°53'1 2.8
2017-May-17 00:30N 43°26' E 004°54'0 0.0
2017-May-16 23:59N 43°26' E 004°54'0 0.0
2017-May-16 23:30N 43°26' E 004°54'0 0.0
2017-May-16 23:00N 43°26' E 004°54'0 0.0
2017-May-16 22:30N 43°26' E 004°54'0 0.0
2017-May-16 22:00N 43°26' E 004°54'0 0.0
2017-May-16 21:30N 43°26' E 004°54'0 0.0
2017-May-16 21:00N 43°26' E 004°54'0 0.0
2017-May-16 20:29N 43°26' E 004°54'0 0.0
2017-May-16 19:54N 43°26' E 004°54'0 0.0
2017-May-16 19:28N 43°26' E 004°54'0 0.0
2017-May-16 19:00N 43°26' E 004°54'0 0.0
2017-May-16 18:22N 43°26' E 004°54'0 0.0
2017-May-16 18:00N 43°26' E 004°54'0 0.0
2017-May-16 17:27N 43°26' E 004°54'0 0.0
2017-May-16 16:59N 43°26' E 004°54'0 0.0
2017-May-16 16:30N 43°26' E 004°54'0 0.0
2017-May-16 15:58N 43°26' E 004°54'0 0.0
2017-May-16 15:30N 43°26' E 004°54'0 0.0
2017-May-16 14:56N 43°26' E 004°54'0 0.0
2017-May-16 14:29N 43°26' E 004°54'0 0.0
2017-May-16 13:30N 43°26' E 004°54'0 0.0
2017-May-16 13:00N 43°26' E 004°54'1 2.3
2017-May-16 12:30N 43°25' E 004°53'1 0.6
2017-May-16 11:23N 43°25' E 004°54'2 3.0
2017-May-16 10:46N 43°24' E 004°56'2 9.3
2017-May-16 10:30N 43°25' E 004°53'1 2.2
2017-May-16 10:00N 43°26' E 004°54'0 0.0
2017-May-16 09:23N 43°26' E 004°54'  
Track history (hours):
 
Tides and Currents Weather Stations Pressure Air Temp Water Temp Dewpoint Dewpoint Depression Visibility Wind Speed Wind Dir Waves Ship Positions

Marseillais 6

Last reported at 2017-May-26 09:00 UTC. Time now 2017-May-26 09:22 UTC.
Position N 43°25' E 004°54'.

Length 35 m; draft 5 m.

Type: Tug. MMSI: 227016900.

Date/timePositionNaut miles runAvg speedWind from/ knotsBaromVisibWave heightAir tempDewpointWater temp
2017-May-26 09:00N 43°25' E 004°54'0 0.1
2017-May-26 08:30N 43°24' E 004°54'0 0.4
2017-May-26 07:25N 43°24' E 004°54'1 1.4
2017-May-26 07:00N 43°25' E 004°53'2 2.6
2017-May-26 06:12N 43°24' E 004°56'211.7
2017-May-26 06:00N 43°24' E 004°59'0 0.7
2017-May-26 05:30N 43°24' E 004°59'0 0.0
2017-May-26 05:00N 43°24' E 004°59'2 4.8
2017-May-26 04:30N 43°24' E 004°56'2 3.8
2017-May-26 04:00N 43°24' E 004°53'0 0.1
2017-May-26 03:28N 43°24' E 004°53'1 1.1
2017-May-26 02:41N 43°24' E 004°54'1 4.9
2017-May-26 02:25N 43°24' E 004°56'1 3.3
2017-May-26 02:00N 43°23' E 004°58'1 2.0
2017-May-26 01:30N 43°24' E 004°59'0 0.0
2017-May-26 01:00N 43°24' E 004°59'0 0.0
2017-May-26 00:30N 43°24' E 004°59'0 0.0
2017-May-26 00:00N 43°24' E 004°59'0 0.0
2017-May-25 23:30N 43°24' E 004°59'0 0.0
2017-May-25 23:00N 43°24' E 004°59'0 0.0
2017-May-25 22:30N 43°24' E 004°59'0 0.0
2017-May-25 22:00N 43°24' E 004°59'0 0.0
2017-May-25 21:30N 43°24' E 004°59'0 0.0
2017-May-25 21:00N 43°24' E 004°59'0 0.0
2017-May-25 20:30N 43°24' E 004°59'0 0.0
2017-May-25 20:00N 43°24' E 004°59'0 0.0
2017-May-25 19:30N 43°24' E 004°59'0 0.0
2017-May-25 19:00N 43°24' E 004°59'0 0.0
2017-May-25 18:30N 43°24' E 004°59'0 0.0
2017-May-25 18:00N 43°24' E 004°59'0 0.0
2017-May-25 17:30N 43°24' E 004°59'0 0.0
2017-May-25 17:00N 43°24' E 004°59'0 0.0
2017-May-25 16:30N 43°24' E 004°59'0 0.0
2017-May-25 16:00N 43°24' E 004°59'0 0.0
2017-May-25 15:30N 43°24' E 004°59'0 0.8
2017-May-25 15:00N 43°24' E 004°60'0 0.8
2017-May-25 14:30N 43°24' E 004°59'0 0.0
2017-May-25 13:30N 43°24' E 004°59'0 0.0
2017-May-25 13:00N 43°24' E 004°59'0 0.0
2017-May-25 12:30N 43°24' E 004°59'0 1.0
2017-May-25 12:00N 43°24' E 004°60'0 0.9
2017-May-25 11:30N 43°24' E 004°59'0 0.0
2017-May-25 11:00N 43°24' E 004°59'0 0.0
2017-May-25 10:30N 43°24' E 004°59'0 0.0
2017-May-25 10:00N 43°24' E 004°59'0 0.0
2017-May-25 09:30N 43°24' E 004°59'0 0.0
2017-May-25 09:00N 43°24' E 004°59'0 0.2
2017-May-25 08:30N 43°24' E 004°59'611.0
2017-May-25 08:00N 43°24' E 004°52'0 0.8
2017-May-25 07:29N 43°25' E 004°51'510.3
2017-May-25 07:00N 43°23' E 004°58'1 1.9
2017-May-25 06:30N 43°24' E 004°59'0 0.0
2017-May-25 06:00N 43°24' E 004°59'0 0.0
2017-May-25 05:30N 43°24' E 004°59'0 0.0
2017-May-25 05:00N 43°24' E 004°59'0 0.0
2017-May-25 04:30N 43°24' E 004°59'0 0.0
2017-May-25 04:00N 43°24' E 004°59'0 0.0
2017-May-25 03:30N 43°24' E 004°59'0 0.0
2017-May-25 03:00N 43°24' E 004°59'0 0.0
2017-May-25 02:30N 43°24' E 004°59'0 0.0
2017-May-25 02:00N 43°24' E 004°59'0 0.0
2017-May-25 01:30N 43°24' E 004°59'0 0.0
2017-May-25 01:00N 43°24' E 004°59'0 0.0
2017-May-25 00:30N 43°24' E 004°59'0 0.0
2017-May-25 00:00N 43°24' E 004°59'0 0.0
2017-May-24 23:30N 43°24' E 004°59'0 0.0
2017-May-24 23:00N 43°24' E 004°59'0 0.0
2017-May-24 22:30N 43°24' E 004°59'0 0.0
2017-May-24 22:00N 43°24' E 004°59'0 0.0
2017-May-24 21:30N 43°24' E 004°59'0 0.0
2017-May-24 21:00N 43°24' E 004°59'0 0.0
2017-May-24 20:30N 43°24' E 004°59'0 0.0
2017-May-24 20:00N 43°24' E 004°59'0 0.0
2017-May-24 19:30N 43°24' E 004°59'0 0.0
2017-May-24 19:00N 43°24' E 004°59'1 1.7
2017-May-24 18:30N 43°23' E 004°58'4 6.5
2017-May-24 17:50N 43°26' E 004°53'0 0.2
2017-May-24 17:27N 43°25' E 004°53'410.2
2017-May-24 17:00N 43°24' E 004°58'1 1.4
2017-May-24 16:30N 43°24' E 004°59'0 0.2
2017-May-24 16:01N 43°24' E 004°59'0 0.8
2017-May-24 15:30N 43°24' E 004°60'0 0.9
2017-May-24 15:00N 43°24' E 004°59'0 0.0
2017-May-24 14:30N 43°24' E 004°59'0 0.0
2017-May-24 13:30N 43°24' E 004°59'0 0.0
2017-May-24 13:00N 43°24' E 004°59'0 0.0
2017-May-24 12:30N 43°24' E 004°59'0 0.0
2017-May-24 12:00N 43°24' E 004°59'0 0.0
2017-May-24 11:30N 43°24' E 004°59'0 0.0
2017-May-24 11:00N 43°24' E 004°59'0 0.0
2017-May-24 10:30N 43°24' E 004°59'0 0.0
2017-May-24 10:00N 43°24' E 004°59'0 0.0
2017-May-24 09:30N 43°24' E 004°59'0 0.0
2017-May-24 09:00N 43°24' E 004°59'0 0.0
2017-May-24 08:30N 43°24' E 004°59'0 0.0
2017-May-24 08:00N 43°24' E 004°59'0 0.0
2017-May-24 07:30N 43°24' E 004°59'0 0.0
2017-May-24 07:00N 43°24' E 004°59'0 0.0
2017-May-24 06:30N 43°24' E 004°59'0 0.0
2017-May-24 06:00N 43°24' E 004°59'0 0.0
2017-May-24 05:30N 43°24' E 004°59'0 0.0
2017-May-24 05:00N 43°24' E 004°59'0 0.0
2017-May-24 04:30N 43°24' E 004°59'0 0.0
2017-May-24 04:00N 43°24' E 004°59'0 0.0
2017-May-24 03:30N 43°24' E 004°59'0 0.0
2017-May-24 03:00N 43°24' E 004°59'0 0.0
2017-May-24 02:30N 43°24' E 004°59'0 0.0
2017-May-24 02:00N 43°24' E 004°59'0 0.0
2017-May-24 01:30N 43°24' E 004°59'0 0.0
2017-May-24 01:00N 43°24' E 004°59'0 0.0
2017-May-24 00:30N 43°24' E 004°59'0 0.0
2017-May-24 00:00N 43°24' E 004°59'0 0.0
2017-May-23 23:30N 43°24' E 004°59'0 0.0
2017-May-23 23:00N 43°24' E 004°59'0 0.0
2017-May-23 22:30N 43°24' E 004°59'0 0.0
2017-May-23 22:00N 43°24' E 004°59'0 0.0
2017-May-23 21:30N 43°24' E 004°59'0 0.0
2017-May-23 21:00N 43°24' E 004°59'0 0.0
2017-May-23 20:30N 43°24' E 004°59'0 0.0
2017-May-23 20:00N 43°24' E 004°59'0 0.0
2017-May-23 19:30N 43°24' E 004°59'0 0.0
2017-May-23 19:00N 43°24' E 004°59'0 0.0
2017-May-23 18:30N 43°24' E 004°59'1 1.7
2017-May-23 18:00N 43°24' E 004°58'611.5
2017-May-23 17:31N 43°25' E 004°50'0 0.5
2017-May-23 17:00N 43°25' E 004°50'0 0.0
2017-May-23 16:30N 43°25' E 004°50'0 0.0
2017-May-23 16:00N 43°25' E 004°50'0 0.0
2017-May-23 15:30N 43°25' E 004°50'2 3.2
2017-May-23 15:00N 43°24' E 004°52'6 5.7
2017-May-23 14:00N 43°24' E 004°60'1 1.9
2017-May-23 13:30N 43°23' E 004°59'1 1.4
2017-May-23 13:00N 43°24' E 004°59'0 0.0
2017-May-23 12:30N 43°24' E 004°59'0 0.0
2017-May-23 12:00N 43°24' E 004°59'0 0.0
2017-May-23 11:30N 43°24' E 004°59'0 0.0
2017-May-23 11:00N 43°24' E 004°59'0 0.0
2017-May-23 10:30N 43°24' E 004°59'0 0.0
2017-May-23 10:00N 43°24' E 004°59'0 0.0
2017-May-23 09:30N 43°24' E 004°59'0 0.0
2017-May-23 09:00N 43°24' E 004°59'0 0.0
2017-May-23 08:31N 43°24' E 004°59'4 1.8
2017-May-23 06:16N 43°26' E 004°54'0 0.0
2017-May-23 05:59N 43°26' E 004°54'0 0.0
2017-May-23 05:30N 43°26' E 004°54'0 0.0
2017-May-23 01:52N 43°26' E 004°54'3 7.8
2017-May-23 01:30N 43°24' E 004°51'0 0.5
2017-May-23 01:00N 43°24' E 004°51'2 4.6
2017-May-23 00:30N 43°25' E 004°53'1 0.2
2017-May-22 21:34N 43°26' E 004°54'0 0.0
2017-May-22 21:06N 43°26' E 004°54'0 0.0
2017-May-22 20:58N 43°26' E 004°54'0 0.0
2017-May-22 20:28N 43°26' E 004°54'0 0.0
2017-May-22 19:54N 43°26' E 004°54'0 0.0
2017-May-22 19:30N 43°26' E 004°54'0 0.0
2017-May-22 18:32N 43°26' E 004°54'0 0.0
2017-May-22 18:08N 43°26' E 004°54'0 0.0
2017-May-22 17:56N 43°26' E 004°54'0 0.0
2017-May-22 17:30N 43°26' E 004°54'0 0.0
2017-May-22 17:00N 43°26' E 004°54'0 0.0
2017-May-22 16:28N 43°26' E 004°54'0 0.0
2017-May-22 16:00N 43°26' E 004°54'0 0.0
2017-May-22 15:29N 43°26' E 004°54'0 0.0
2017-May-22 14:59N 43°26' E 004°54'0 0.0
2017-May-22 14:00N 43°26' E 004°54'0 0.0
2017-May-22 13:30N 43°26' E 004°54'0 0.0
2017-May-22 13:00N 43°26' E 004°54'0 0.0
2017-May-22 12:30N 43°26' E 004°54'0 0.0
2017-May-22 11:57N 43°26' E 004°54'0 0.0
2017-May-22 11:30N 43°26' E 004°54'0 0.0
2017-May-22 11:00N 43°26' E 004°54'0 0.0
2017-May-22 10:30N 43°26' E 004°54'0 0.0
2017-May-22 10:00N 43°26' E 004°54'0 0.0
2017-May-22 09:30N 43°26' E 004°54'0 0.0
2017-May-22 08:59N 43°26' E 004°54'0 0.0
2017-May-22 08:23N 43°26' E 004°54'0 0.0
2017-May-22 07:38N 43°26' E 004°54'0 0.0
2017-May-22 07:27N 43°26' E 004°54'0 0.0
2017-May-22 06:57N 43°26' E 004°54'0 0.0
2017-May-22 06:19N 43°26' E 004°54'0 0.0
2017-May-22 05:56N 43°26' E 004°54'0 0.0
2017-May-22 05:18N 43°26' E 004°54'0 0.0
2017-May-22 04:32N 43°26' E 004°54'0 0.0
2017-May-22 04:22N 43°26' E 004°54'0 0.0
2017-May-22 03:47N 43°26' E 004°54'0 0.0
2017-May-22 03:23N 43°26' E 004°54'0 0.0
2017-May-22 02:46N 43°26' E 004°54'0 0.0
2017-May-22 02:29N 43°26' E 004°54'0 0.0
2017-May-22 01:57N 43°26' E 004°54'0 0.0
2017-May-22 01:27N 43°26' E 004°54'0 0.0
2017-May-22 00:57N 43°26' E 004°54'0 0.0
2017-May-22 00:27N 43°26' E 004°54'0 0.0
2017-May-21 23:59N 43°26' E 004°54'1 2.1
2017-May-21 23:27N 43°25' E 004°53'1 1.6
2017-May-21 22:50N 43°24' E 004°54'2 4.6
2017-May-21 22:28N 43°24' E 004°56'2 5.1
2017-May-21 22:00N 43°24' E 004°53'0 0.8
2017-May-21 21:21N 43°25' E 004°53'0 0.7
2017-May-21 21:00N 43°25' E 004°53'0 0.8
2017-May-21 20:28N 43°25' E 004°53'1 1.2
2017-May-21 19:53N 43°24' E 004°53'0 0.0
2017-May-21 19:23N 43°24' E 004°53'1 3.4
2017-May-21 18:59N 43°26' E 004°54'0 0.0
2017-May-21 18:30N 43°26' E 004°54'0 0.0
2017-May-21 17:59N 43°26' E 004°54'0 0.0
2017-May-21 17:28N 43°26' E 004°54'0 0.0
2017-May-21 16:58N 43°26' E 004°54'0 0.0
2017-May-21 16:30N 43°26' E 004°54'0 0.0
2017-May-21 16:00N 43°26' E 004°54'0 0.0
2017-May-21 15:30N 43°26' E 004°54'0 0.0
2017-May-21 15:00N 43°26' E 004°54'0 0.0
2017-May-21 13:57N 43°26' E 004°54'0 0.0
2017-May-21 13:30N 43°26' E 004°54'0 0.0
2017-May-21 13:00N 43°26' E 004°54'0 0.0
2017-May-21 12:30N 43°26' E 004°54'0 0.0
2017-May-21 12:00N 43°26' E 004°54'0 0.0
2017-May-21 11:30N 43°26' E 004°54'0 0.0
2017-May-21 11:00N 43°26' E 004°54'0 0.0
2017-May-21 10:29N 43°26' E 004°54'0 0.0
2017-May-21 09:59N 43°26' E 004°54'0 0.0
2017-May-21 09:29N 43°26' E 004°54'0 0.0
2017-May-21 08:58N 43°26' E 004°54'0 0.0
2017-May-21 08:09N 43°26' E 004°54'1 6.4
2017-May-21 08:00N 43°25' E 004°53'1 1.2
2017-May-21 07:30N 43°25' E 004°54'0 0.1
2017-May-21 06:49N 43°25' E 004°54'0 1.1
2017-May-21 06:30N 43°24' E 004°54'2 3.4
2017-May-21 05:57N 43°24' E 004°56'3 2.3
2017-May-21 04:48N 43°26' E 004°54'0 0.0
2017-May-21 03:26N 43°26' E 004°54'0 0.0
2017-May-21 00:18N 43°26' E 004°54'0 0.3
2017-May-20 23:51N 43°26' E 004°54'2 6.3
2017-May-20 23:31N 43°25' E 004°51'0 0.4
2017-May-20 23:01N 43°25' E 004°51'2 2.7
2017-May-20 22:05N 43°26' E 004°54'0 0.0
2017-May-20 21:47N 43°26' E 004°54'0 0.0
2017-May-20 21:22N 43°26' E 004°54'0 0.0
2017-May-20 20:34N 43°26' E 004°54'0 0.0
2017-May-20 20:09N 43°26' E 004°54'0 0.0
2017-May-20 19:42N 43°26' E 004°54'0 0.0
2017-May-20 19:30N 43°26' E 004°54'0 0.0
2017-May-20 18:51N 43°26' E 004°54'0 0.0
2017-May-20 17:25N 43°26' E 004°54'0 0.0
2017-May-20 16:56N 43°26' E 004°54'0 0.0
2017-May-20 16:19N 43°26' E 004°54'2 4.0
2017-May-20 15:50N 43°24' E 004°52'1 3.2
2017-May-20 15:31N 43°25' E 004°51'2 2.7
2017-May-20 14:55N 43°24' E 004°53'1 3.3
2017-May-20 14:30N 43°26' E 004°54'0 0.0
2017-May-20 13:30N 43°26' E 004°54'0 0.0
2017-May-20 13:00N 43°26' E 004°54'0 0.0
2017-May-20 12:26N 43°26' E 004°54'0 0.0
2017-May-20 11:57N 43°26' E 004°54'0 0.0
2017-May-20 11:30N 43°26' E 004°54'0 0.0
2017-May-20 11:00N 43°26' E 004°54'0 0.0
2017-May-20 10:29N 43°26' E 004°54'0 0.0
2017-May-20 09:52N 43°26' E 004°54'0 0.0
2017-May-20 09:23N 43°26' E 004°54'0 0.0
2017-May-20 08:58N 43°26' E 004°54'0 0.0
2017-May-20 08:27N 43°26' E 004°54'0 0.0
2017-May-20 08:00N 43°26' E 004°54'0 0.0
2017-May-20 07:30N 43°26' E 004°54'0 0.0
2017-May-20 06:56N 43°26' E 004°54'0 0.0
2017-May-20 05:09N 43°26' E 004°54'0 0.0
2017-May-20 04:57N 43°26' E 004°54'0 0.0
2017-May-20 03:37N 43°26' E 004°54'0 0.0
2017-May-20 03:28N 43°26' E 004°54'0 0.0
2017-May-20 02:49N 43°26' E 004°54'0 0.0
2017-May-20 02:19N 43°26' E 004°54'0 0.0
2017-May-20 02:00N 43°26' E 004°54'0 0.0
2017-May-20 01:10N 43°26' E 004°54'0 0.0
2017-May-20 00:45N 43°26' E 004°54'0 0.0
2017-May-20 00:22N 43°26' E 004°54'0 0.0
2017-May-20 00:00N 43°26' E 004°54'0 0.0
2017-May-19 23:28N 43°26' E 004°54'1 2.3
2017-May-19 23:00N 43°25' E 004°53'0 0.2
2017-May-19 22:15N 43°26' E 004°52'1 1.8
2017-May-19 21:49N 43°25' E 004°53'2 2.3
2017-May-19 21:06N 43°24' E 004°55'1 6.9
2017-May-19 21:00N 43°24' E 004°54'2 3.1
2017-May-19 20:30N 43°26' E 004°54'0 0.0
2017-May-19 20:00N 43°26' E 004°54'0 0.0
2017-May-19 19:30N 43°26' E 004°54'1 1.7
2017-May-19 18:52N 43°25' E 004°53'0 0.1
2017-May-19 18:28N 43°25' E 004°53'0 0.0
2017-May-19 18:00N 43°25' E 004°53'1 2.0
2017-May-19 17:29N 43°26' E 004°54'0 0.0
2017-May-19 16:59N 43°26' E 004°54'0 0.0
2017-May-19 16:29N 43°26' E 004°54'0 0.0
2017-May-19 16:00N 43°26' E 004°54'0 0.0
2017-May-19 15:30N 43°26' E 004°54'0 0.0
2017-May-19 14:59N 43°26' E 004°54'0 0.0
2017-May-19 14:00N 43°26' E 004°54'0 0.0
2017-May-19 13:29N 43°26' E 004°54'0 0.5
2017-May-19 13:00N 43°26' E 004°54'1 2.0
2017-May-19 12:23N 43°24' E 004°53'1 3.1
2017-May-19 11:59N 43°24' E 004°55'1 1.5
2017-May-19 11:30N 43°24' E 004°54'2 3.1
2017-May-19 10:59N 43°26' E 004°54'0 0.0
2017-May-19 10:26N 43°26' E 004°54'0 0.0
2017-May-19 09:57N 43°26' E 004°54'0 0.0
2017-May-19 09:18N 43°26' E 004°54'2 5.1
2017-May-19 08:59N 43°24' E 004°54'4 9.0
2017-May-19 08:30N 43°24' E 004°60'0 0.0
2017-May-19 08:00N 43°24' E 004°60'0 0.5
2017-May-19 07:31N 43°24' E 004°59'1 1.9
2017-May-19 07:00N 43°23' E 004°58'4 4.9
2017-May-19 06:13N 43°26' E 004°54'0 0.4
2017-May-19 05:56N 43°26' E 004°54'3 5.9
2017-May-19 05:28N 43°24' E 004°51'1 2.1
2017-May-19 05:00N 43°24' E 004°52'2 4.6
2017-May-19 04:30N 43°26' E 004°54'0 0.1
2017-May-19 03:43N 43°26' E 004°54'0 0.0
2017-May-19 03:25N 43°26' E 004°54'0 0.0
2017-May-19 03:00N 43°26' E 004°54'0 0.0
2017-May-19 01:21N 43°26' E 004°54'0 0.0
2017-May-18 20:07N 43°26' E 004°54'0 0.0
2017-May-18 19:08N 43°26' E 004°54'0 0.0
2017-May-18 18:59N 43°26' E 004°54'0 0.0
2017-May-18 18:30N 43°26' E 004°54'2 3.5
2017-May-18 17:52N 43°24' E 004°56'3 9.2
2017-May-18 17:30N 43°24' E 005°00'3 4.2
2017-May-18 16:44N 43°25' E 005°05'0 0.0
2017-May-18 16:24N 43°25' E 005°05'0 0.0
2017-May-18 16:00N 43°25' E 005°05'2 3.4
2017-May-18 15:30N 43°26' E 005°07'2 3.6
2017-May-18 15:00N 43°27' E 005°08'4 8.9
2017-May-18 14:30N 43°24' E 005°03'8 8.2
2017-May-18 13:30N 43°24' E 004°52'1 1.8
2017-May-18 13:00N 43°24' E 004°51'2 4.5
2017-May-18 12:30N 43°25' E 004°53'1 1.2
2017-May-18 12:00N 43°26' E 004°54'0 0.0
2017-May-18 11:30N 43°26' E 004°54'0 0.0
2017-May-18 11:00N 43°26' E 004°54'0 0.0
2017-May-18 10:27N 43°26' E 004°54'0 0.0
2017-May-18 10:00N 43°26' E 004°54'0 0.0
2017-May-18 09:28N 43°26' E 004°54'0 0.0
2017-May-18 08:59N 43°26' E 004°54'0 0.0
2017-May-18 08:30N 43°26' E 004°54'0 0.0
2017-May-18 07:57N 43°26' E 004°54'0 0.0
2017-May-18 07:30N 43°26' E 004°54'0 0.0
2017-May-18 06:47N 43°26' E 004°54'2 5.5
2017-May-18 06:30N 43°24' E 004°54'1 1.2
2017-May-18 06:00N 43°24' E 004°55'0 0.0
2017-May-18 05:30N 43°24' E 004°55'1 2.8
2017-May-18 05:00N 43°24' E 004°57'3 5.7
2017-May-18 04:30N 43°26' E 004°54'0 0.0
2017-May-18 02:34N 43°26' E 004°54'0 0.0
2017-May-18 02:28N 43°26' E 004°54'0 0.0
2017-May-18 02:00N 43°26' E 004°54'0 0.0
2017-May-18 01:04N 43°26' E 004°54'0 0.0
2017-May-18 00:58N 43°26' E 004°54'0 0.0
2017-May-18 00:26N 43°26' E 004°54'0 0.0
2017-May-17 23:56N 43°26' E 004°54'0 0.0
2017-May-17 23:27N 43°26' E 004°54'0 0.0
2017-May-17 22:49N 43°26' E 004°54'0 0.0
2017-May-17 22:30N 43°26' E 004°54'1 2.2
2017-May-17 22:00N 43°26' E 004°52'0 0.1
2017-May-17 21:30N 43°26' E 004°52'1 1.9
2017-May-17 20:59N 43°25' E 004°53'0 1.0
2017-May-17 20:30N 43°25' E 004°53'1 1.4
2017-May-17 19:58N 43°26' E 004°54'0 0.0
2017-May-17 19:30N 43°26' E 004°54'0 0.0
2017-May-17 19:00N 43°26' E 004°54'0 0.0
2017-May-17 18:19N 43°26' E 004°54'2 5.5
2017-May-17 18:01N 43°24' E 004°54'1 1.2
2017-May-17 17:31N 43°24' E 004°53'1 2.0
2017-May-17 16:55N 43°26' E 004°54'0 0.1
2017-May-17 15:44N 43°26' E 004°54'0 0.0
2017-May-17 15:28N 43°26' E 004°54'0 0.0
2017-May-17 15:00N 43°26' E 004°54'0 0.0
2017-May-17 14:01N 43°26' E 004°54'1 1.0
2017-May-17 13:06N 43°25' E 004°53'1 1.5
2017-May-17 12:28N 43°24' E 004°54'0 0.4
2017-May-17 12:00N 43°24' E 004°53'2 1.8
2017-May-17 10:59N 43°25' E 004°51'2 4.7
2017-May-17 10:30N 43°26' E 004°54'0 0.2
2017-May-17 10:00N 43°26' E 004°54'0 0.0
2017-May-17 09:30N 43°26' E 004°54'0 0.0
2017-May-17 08:59N 43°26' E 004°54'0 0.0
2017-May-17 07:38N 43°26' E 004°54'0 0.0
2017-May-17 06:45N 43°26' E 004°54'0 0.0
2017-May-17 06:15N 43°26' E 004°54'0 0.0
2017-May-17 05:55N 43°26' E 004°54'0 0.0
2017-May-17 05:25N 43°26' E 004°54'0 0.0
2017-May-17 04:57N 43°26' E 004°54'0 0.0
2017-May-17 04:30N 43°26' E 004°54'0 0.0
2017-May-17 04:00N 43°26' E 004°54'0 0.0
2017-May-17 03:30N 43°26' E 004°54'0 0.0
2017-May-17 03:00N 43°26' E 004°54'1 1.3
2017-May-17 02:29N 43°25' E 004°53'2 2.1
2017-May-17 01:35N 43°25' E 004°51'0 0.9
2017-May-17 01:31N 43°25' E 004°51'2 2.8
2017-May-17 00:55N 43°25' E 004°53'1 2.8
2017-May-17 00:30N 43°26' E 004°54'0 0.0
2017-May-16 23:59N 43°26' E 004°54'0 0.0
2017-May-16 23:30N 43°26' E 004°54'0 0.0
2017-May-16 23:00N 43°26' E 004°54'0 0.0
2017-May-16 22:30N 43°26' E 004°54'0 0.0
2017-May-16 22:00N 43°26' E 004°54'0 0.0
2017-May-16 21:30N 43°26' E 004°54'0 0.0
2017-May-16 21:00N 43°26' E 004°54'0 0.0
2017-May-16 20:29N 43°26' E 004°54'0 0.0
2017-May-16 19:54N 43°26' E 004°54'0 0.0
2017-May-16 19:28N 43°26' E 004°54'0 0.0
2017-May-16 19:00N 43°26' E 004°54'0 0.0
2017-May-16 18:22N 43°26' E 004°54'0 0.0
2017-May-16 18:00N 43°26' E 004°54'0 0.0
2017-May-16 17:27N 43°26' E 004°54'0 0.0
2017-May-16 16:59N 43°26' E 004°54'0 0.0
2017-May-16 16:30N 43°26' E 004°54'0 0.0
2017-May-16 15:58N 43°26' E 004°54'0 0.0
2017-May-16 15:30N 43°26' E 004°54'0 0.0
2017-May-16 14:56N 43°26' E 004°54'0 0.0
2017-May-16 14:29N 43°26' E 004°54'0 0.0
2017-May-16 13:30N 43°26' E 004°54'0 0.0
2017-May-16 13:00N 43°26' E 004°54'1 2.3
2017-May-16 12:30N 43°25' E 004°53'1 0.6
2017-May-16 11:23N 43°25' E 004°54'2 3.0
2017-May-16 10:46N 43°24' E 004°56'2 9.3
2017-May-16 10:30N 43°25' E 004°53'1 2.2
2017-May-16 10:00N 43°26' E 004°54'0 0.0
2017-May-16 09:23N 43°26' E 004°54'  

Dump ship's entire track history